Estación Meteorológica Peña el Pijo (Robertgarden) [ 12/10/18 11:42:07 CET ]

Fecha Hora Presion(HPa) Temp (°C) Humedad % Rocio (°C) Viento ( m/s) Direccion Lluvia 1Hora(mm) Lluvia 24H(mm) LLuvia Total(mm)
2018-Apr-13 01:01:44 993.900 4.9 78 1.3       0.51 197.87
2018-Apr-13 02:01:56 994.100 3.9 77 0.2       0.51 197.87
2018-Apr-13 03:01:41 994.000 2.4 79 -0.9       0.51 197.87
2018-Apr-13 04:01:40 993.500 1.5 80 -1.6       0.51 197.87
2018-Apr-13 05:01:40 993.800 1.6 83 -1.0       0.51 197.87
2018-Apr-13 06:01:43 994.800 1.3 83 -1.3       0.51 197.87
2018-Apr-13 07:01:39 995.300 2.5 85 0.2       0.51 197.87
2018-Apr-13 08:01:43 995.400 7.4 80 4.2       0.51 197.87
2018-Apr-13 09:01:39 995.600 11.0 62 4.0       0.51 197.87
2018-Apr-13 10:01:37 996.100 12.9 49 2.4       0.51 197.87
2018-Apr-13 11:01:47 996.500 11.3 51 1.5       0.51 197.87
2018-Apr-13 12:01:30 996.700 9.8 55 1.4 1.2 NE   0.51 197.87
2018-Apr-13 13:01:28 996.500 12.2 56 3.5       0.51 197.87
2018-Apr-13 14:01:22 996.600 12.2 53 2.9       0.51 197.87
2018-Apr-13 15:01:38 996.400 13.6 47 2.4       0.51 197.87
2018-Apr-13 16:01:21 997.000 11.9 53 2.8 2.4 NE   0.51 197.87
2018-Apr-13 17:01:25 997.700 8.1 70 3.1     0.51 1.03 198.39
2018-Apr-13 18:01:36 998.700 7.0 76 3.0     1.03 2.07 199.43
2018-Apr-13 19:01:36 999.600 5.9 81 2.9     0.51 2.59 199.94
2018-Apr-13 20:01:24 1000.400 5.6 82 2.7     0.51 3.10 200.46
2018-Apr-13 21:01:20 1001.300 5.0 83 2.3       2.59 200.46
2018-Apr-13 22:01:28 1001.800 5.0 83 2.3       2.59 200.46
2018-Apr-13 23:01:33 1002.300 5.0 85 2.6       2.59 200.46

Temperatura Máxima:13°    Temperatura Mínima:
Presión Máxima:1002.300 Hpa    Presión Mínima:993.500 Hpa


Volver